Latest Coastal Weather Observations for Cape Borda

IDS60701

Issued at 4:01 pm CST Wednesday 2 September 2015 (issued every 10 minutes, with the page automatically refreshed every 10 minutes)

About coastal observations | Map of coastal stations | Coastal observations for SA | Marine services | Other Formats
Station Details ID: 022823 Name: CAPE BORDA Lat: -35.75 Lon: 136.60 Height: 158.0 m
Data from the previous 72 hours. | See also: Recent months at Cape Borda
Date/Time
CST
Temp

°C
Wind Pressure Rain
since 9am
mm
Weather Cloud Vis
km
Sea
Height
m
Swell
Dir
 
Speed
knots
Gust
knots
hPa Trend Height
m
Period
s
Dir
02/04:00pm 12.4 S 17 24 1002.5 - 3.6 - - - - - - -
02/03:30pm 12.1 S 16 24 1001.8 - 3.6 - - - - - - -
02/03:00pm 12.2 S 16 23 1000.9 - 3.6 - - - - - - -
02/02:30pm 11.3 S 13 18 1000.4 - 3.6 - - - - - - -
02/02:00pm 11.0 S 13 19 1000.2 - 2.8 - - - - - - -
02/01:30pm 12.6 SSE 9 14 999.8 - 0.6 - - - - - - -
02/01:00pm 12.9 ESE 10 15 999.5 - 0.6 - - - - - - -
02/12:30pm 11.9 ESE 12 16 999.5 - 0.6 - - - - - - -
02/12:00pm 10.8 ENE 13 18 999.5 - 0.6 - - - - - - -
02/11:30am 10.8 ENE 14 18 999.7 - 0.6 - - - - - - -
02/11:00am 10.4 NE 13 19 1000.0 - 0.6 - - - - - - -
02/10:30am 10.1 NNE 15 23 1000.0 - 0.6 - - - - - - -
02/10:00am 9.8 NNE 15 22 1000.1 - 0.6 - - - - - - -
02/09:30am 10.3 N 15 22 1000.4 - 0.2 - - - - - - -
02/09:00am 9.4 NNE 11 17 1000.6 - 19.4 - - - - - - -
02/08:30am 10.3 N 15 22 1000.6 - 19.4 - - - - - - -
02/08:00am 9.9 N 13 22 1000.7 - 19.4 - - - - - - -
02/07:51am 9.2 N 15 29 1000.5 - 19.2 - - - - - - -
02/07:30am 10.2 N 17 23 1000.5 - 15.8 - - - - - - -
02/07:25am 10.4 N 16 27 1000.5 - 15.8 - - - - - - -
02/07:00am 8.4 NW 14 19 1001.0 - 14.8 - - - - - - -
02/06:41am 9.4 NNW 17 27 1000.6 - 13.2 - - - - - - -
02/06:30am 11.0 N 20 28 1000.3 - 13.2 - - - - - - -
02/06:00am 10.9 N 19 26 1000.3 - 13.2 - - - - - - -
02/05:45am 10.8 N 17 27 1000.2 - 13.2 - - - - - - -
02/05:30am 10.8 N 17 25 1000.2 - 13.2 - - - - - - -
02/05:00am 10.7 N 18 25 1000.3 - 13.2 - - - - - - -
02/04:39am 11.2 N 17 27 1000.7 - 13.2 - - - - - - -
02/04:30am 11.2 N 18 27 1000.9 - 13.2 - - - - - - -
02/04:00am 11.2 N 16 24 1001.1 - 13.2 - - - - - - -
02/03:30am 11.2 N 17 25 1001.4 - 13.2 - - - - - - -
02/03:00am 11.3 N 17 24 1001.4 - 13.2 - - - - - - -
02/02:49am 11.3 N 15 28 1001.8 - 13.2 - - - - - - -
02/02:30am 11.2 N 15 21 1002.2 - 13.2 - - - - - - -
02/02:00am 11.0 NNW 17 24 1002.6 - 13.2 - - - - - - -
02/01:30am 10.2 NNW 13 23 1002.7 - 13.0 - - - - - - -
02/01:00am 11.6 N 15 18 1003.0 - 12.6 - - - - - - -
02/12:30am 11.4 N 12 16 1002.8 - 12.6 - - - - - - -
02/12:00am 11.7 N 13 17 1003.2 - 12.6 - - - - - - -
 
Date/Time
CST
Temp

°C
Wind Pressure Rain
since 9am
mm
Weather Cloud Vis
km
Sea
Height
m
Swell
Dir
 
Speed
knots
Gust
knots
hPa Trend Height
m
Period
s
Dir
01/11:30pm 11.5 N 17 27 1003.9 - 12.4 - - - - - - -
01/11:00pm 11.6 N 18 25 1004.4 - 11.8 - - - - - - -
01/10:30pm 11.6 N 19 27 1004.8 - 10.8 - - - - - - -
01/10:05pm 12.0 NNE 18 29 1004.7 - 9.0 - - - - - - -
01/10:00pm 12.2 NNE 17 25 1004.6 - 9.0 - - - - - - -
01/09:43pm 12.0 N 18 28 1004.9 - 9.0 - - - - - - -
01/09:30pm 12.1 N 19 27 1004.9 - 8.8 - - - - - - -
01/09:19pm 12.0 NNE 17 29 1005.1 - 8.6 - - - - - - -
01/09:00pm 12.1 NE 16 22 1005.2 - 8.2 - - - - - - -
01/08:54pm 12.2 NE 16 26 1005.1 - 8.0 - - - - - - -
01/08:30pm 11.9 ENE 17 23 1004.5 - 7.6 - - - - - - -
01/08:00pm 11.4 ENE 17 25 1004.3 - 7.6 - - - - - - -
01/07:30pm 11.3 ENE 18 25 1004.0 - 7.6 - - - - - - -
01/07:00pm 11.7 NE 19 26 1004.1 - 7.6 - - - - - - -
01/06:30pm 11.2 NE 18 26 1004.2 - 7.6 - - - - - - -
01/06:00pm 11.7 ENE 17 23 1004.1 - 7.6 - - - - - - -
01/05:30pm 11.9 NE 16 22 1004.5 - 7.6 - - - - - - -
01/05:07pm 11.8 NNE 16 26 1004.6 - 7.2 - - - - - - -
01/05:00pm 11.8 NNE 17 22 1004.6 - 7.2 - - - - - - -
01/04:30pm 11.8 NNE 18 25 1004.9 - 6.8 - - - - - - -
01/04:00pm 12.0 NNE 16 23 1005.5 - 5.8 - - - - - - -
01/03:39pm 12.0 NNE 15 25 1005.8 - 3.4 - - - - - - -
01/03:30pm 12.0 NNE 15 22 1005.9 - 2.4 - - - - - - -
01/03:00pm 12.2 NNE 13 17 1006.0 F 2.2 Rain Cloudy 18 <0.5 3.8 7 SW
01/02:30pm 12.3 N 12 19 1006.3 - 2.2 - - - - - - -
01/02:00pm 12.8 NNE 15 20 1006.8 - 1.0 - - - - - - -
01/01:30pm 12.9 NNE 13 19 1007.3 - 0.8 - - - - - - -
01/01:00pm 12.9 NE 13 19 1007.9 - 0.8 - - - - - - -
01/12:30pm 12.9 ENE 16 23 1008.3 - 0.8 - - - - - - -
01/12:00pm 13.2 ENE 15 22 1008.5 - 0.8 - - - - - - -
01/11:30am 14.2 ENE 15 21 1009.0 - 0.8 - - - - - - -
01/11:00am 13.5 ENE 14 22 1009.2 - 0.8 - - - - - - -
01/10:30am 12.4 E 14 19 1009.3 - 0.8 - - - - - - -
01/10:00am 12.6 ENE 11 16 1010.6 - 0.8 - - - - - - -
01/09:30am 12.6 ENE 12 18 1010.7 - 0.4 - - - - - - -
01/09:00am 12.7 ENE 12 16 1010.8 F 0.0 Drizzle Cloudy 8 <0.5 3.5 10 S
01/08:30am 12.5 ENE 13 18 1011.0 - 0.0 - - - - - - -
01/08:00am 12.7 ENE 12 16 1011.0 - 0.0 - - - - - - -
01/07:30am 12.7 ENE 13 17 1010.6 - 0.0 - - - - - - -
01/07:00am 12.6 ENE 11 15 1010.6 - 0.0 - - - - - - -
01/06:30am 13.0 NE 10 14 1010.5 - 0.0 - - - - - - -
01/06:00am 12.9 ENE 9 12 1010.6 - 0.0 - - - - - - -
01/05:30am 12.8 NE 11 13 1011.0 - 0.0 - - - - - - -
01/05:00am 12.5 NE 10 13 1010.8 - 0.0 - - - - - - -
01/04:30am 12.5 ENE 11 15 1010.7 - 0.0 - - - - - - -
01/04:00am 12.6 ENE 13 18 1010.7 - 0.0 - - - - - - -
01/03:30am 12.6 ENE 12 16 1011.1 - 0.0 - - - - - - -
01/03:00am 12.6 NNE 9 13 1011.3 - 0.0 - - - - - - -
01/02:30am 12.9 ENE 15 21 1011.8 - 0.0 - - - - - - -
01/02:00am 12.9 ENE 14 19 1012.1 - 0.0 - - - - - - -
01/01:30am 13.2 ENE 15 20 1012.6 - 0.0 - - - - - - -
01/01:00am 13.7 ENE 15 23 1013.0 - 0.0 - - - - - - -
01/12:30am 13.3 ENE 14 20 1013.1 - 0.0 - - - - - - -
01/12:00am 13.7 ENE 14 21 1013.6 - 0.0 - - - - - - -
 
Date/Time
CST
Temp

°C
Wind Pressure Rain
since 9am
mm
Weather Cloud Vis
km
Sea
Height
m
Swell
Dir
 
Speed
knots
Gust
knots
hPa Trend Height
m
Period
s
Dir
31/11:30pm 13.3 ENE 13 19 1013.8 - 0.0 - - - - - - -
31/11:00pm 13.5 ENE 14 19 1014.4 - 0.0 - - - - - - -
31/10:30pm 13.5 ENE 13 19 1014.9 - 0.0 - - - - - - -
31/10:00pm 13.2 ENE 13 19 1015.1 - 0.0 - - - - - - -
31/09:30pm 13.5 ENE 13 17 1015.3 - 0.0 - - - - - - -
31/09:00pm 13.3 ENE 13 18 1015.5 - 0.0 - - - - - - -
31/08:30pm 13.5 ENE 12 18 1015.4 - 0.0 - - - - - - -
31/08:00pm 13.5 ENE 12 16 1015.4 - 0.0 - - - - - - -
31/07:30pm 13.3 ENE 13 17 1015.2 - 0.0 - - - - - - -
31/07:00pm 13.3 ENE 13 17 1015.3 - 0.0 - - - - - - -
31/06:30pm 13.0 ENE 12 17 1015.4 - 0.0 - - - - - - -
31/06:00pm 12.9 ENE 13 17 1015.5 - 0.0 - - - - - - -
31/05:30pm 13.2 ENE 12 16 1015.5 - 0.0 - - - - - - -
31/05:00pm 13.3 ENE 12 15 1015.5 - 0.0 - - - - - - -
31/04:30pm 13.8 ENE 11 15 1015.8 - 0.0 - - - - - - -
31/04:00pm 14.2 ENE 12 16 1016.0 - 0.0 - - - - - - -
31/03:30pm 15.0 NE 11 15 1016.2 - 0.0 - - - - - - -
31/03:00pm 16.0 ENE 11 16 1016.5 F 0.0 Fine Mostly cloudy 18 <0.5 3.7 10 SW
31/02:30pm 15.5 ENE 12 16 1016.4 - 0.0 - - - - - - -
31/02:00pm 15.2 NE 12 16 1016.6 - 0.0 - - - - - - -
31/01:30pm 15.7 ENE 13 17 1016.9 - 0.0 - - - - - - -
31/01:00pm 15.0 ENE 12 17 1017.3 - 0.0 - - - - - - -
31/12:30pm 14.9 ENE 16 20 1017.6 - 0.0 - - - - - - -
31/12:00pm 15.1 ENE 14 19 1018.6 - 0.0 - - - - - - -
31/11:30am 14.6 ENE 12 16 1019.2 - 0.0 - - - - - - -
31/11:00am 13.8 ENE 14 17 1019.4 - 0.0 - - - - - - -
31/10:30am 13.5 ENE 14 17 1019.6 - 0.0 - - - - - - -
31/10:00am 13.5 ENE 13 17 1019.6 - 0.0 - - - - - - -
31/09:30am 12.7 ENE 13 17 1019.7 - 0.0 - - - - - - -
31/09:00am 12.2 ENE 12 17 1020.0 F 0.2 Haze Mostly clear 15 <0.5 2.8 10 SW
31/08:30am 11.4 ENE 12 18 1019.6 - 0.2 - - - - - - -
31/08:00am 10.8 ENE 12 16 1019.6 - 0.2 - - - - - - -
31/07:30am 10.2 ENE 12 16 1019.4 - 0.2 - - - - - - -
31/07:00am 9.6 ENE 12 17 1019.4 - 0.2 - - - - - - -
31/06:30am 9.1 ENE 12 16 1019.2 - 0.2 - - - - - - -
31/06:00am 9.1 ENE 12 16 1019.4 - 0.2 - - - - - - -
31/05:30am 9.2 ENE 11 14 1019.5 - 0.0 - - - - - - -
31/05:00am 8.9 ENE 11 14 1019.5 - 0.0 - - - - - - -
31/04:30am 8.5 ENE 10 12 1019.4 - 0.0 - - - - - - -
31/04:00am 7.5 E 9 10 1019.7 - 0.0 - - - - - - -
31/03:30am 8.3 E 8 10 1020.1 - 0.0 - - - - - - -
31/03:00am 8.5 E 9 11 1020.6 - 0.0 - - - - - - -
31/02:30am 8.4 E 9 12 1020.8 - 0.0 - - - - - - -
31/02:00am 8.7 E 10 12 1020.9 - 0.0 - - - - - - -
31/01:30am 8.7 ENE 9 12 1021.3 - 0.0 - - - - - - -
31/01:00am 8.8 ENE 10 11 1021.7 - 0.0 - - - - - - -
31/12:30am 8.9 ENE 10 13 1021.6 - 0.0 - - - - - - -
31/12:00am 8.9 ENE 10 13 1021.7 - 0.0 - - - - - - -
 
Date/Time
CST
Temp

°C
Wind Pressure Rain
since 9am
mm
Weather Cloud Vis
km
Sea
Height
m
Swell
Dir
 
Speed
knots
Gust
knots
hPa Trend Height
m
Period
s
Dir
30/11:30pm 8.4 ENE 10 13 1021.7 - 0.0 - - - - - - -
30/11:00pm 7.3 E 10 13 1022.0 - 0.0 - - - - - - -
30/10:30pm 6.9 E 10 11 1022.1 - 0.0 - - - - - - -
30/10:00pm 8.1 E 9 12 1022.2 - 0.0 - - - - - - -
30/09:30pm 7.9 E 9 11 1022.2 - 0.0 - - - - - - -
30/09:00pm 6.9 E 9 12 1022.5 - 0.0 - - - - - - -
30/08:30pm 7.2 E 9 11 1022.3 - 0.0 - - - - - - -
30/08:00pm 6.8 E 9 9 1022.4 - 0.0 - - - - - - -
30/07:30pm 7.3 E 9 10 1022.2 - 0.0 - - - - - - -
30/07:00pm 8.1 E 7 9 1022.3 - 0.0 - - - - - - -
30/06:30pm 8.8 ENE 7 9 1022.1 - 0.0 - - - - - - -
30/06:00pm 9.7 E 7 9 1022.2 - 0.0 - - - - - - -
30/05:30pm 11.1 ENE 6 8 1022.2 - 0.0 - - - - - - -
30/05:00pm 12.0 NE 7 9 1022.3 - 0.0 - - - - - - -
30/04:30pm 12.2 NE 8 10 1022.4 - 0.0 - - - - - - -

Other Formats:

Comma delimited format used in spreadsheet applications
http://www.bom.gov.au/fwo/IDS60701/IDS60701.95805.axf

JavaScript Object Notation format (JSON) in row-major order
http://www.bom.gov.au/fwo/IDS60701/IDS60701.95805.json